sensor_id;sensor_type;location;lat;lon;timestamp;temperature;humidity
69387;SHT31;56575;48.942;8.404;2023-05-17T00:00:01;10.21;67.62
69387;SHT31;56575;48.942;8.404;2023-05-17T00:02:26;10.17;67.81
69387;SHT31;56575;48.942;8.404;2023-05-17T00:04:51;10.18;68.29
69387;SHT31;56575;48.942;8.404;2023-05-17T00:07:17;10.18;68.43
69387;SHT31;56575;48.942;8.404;2023-05-17T00:09:43;10.16;68.33
69387;SHT31;56575;48.942;8.404;2023-05-17T00:12:08;10.13;68.79
69387;SHT31;56575;48.942;8.404;2023-05-17T00:14:33;10.14;68.96
69387;SHT31;56575;48.942;8.404;2023-05-17T00:16:59;10.12;69.23
69387;SHT31;56575;48.942;8.404;2023-05-17T00:19:25;10.10;69.57
69387;SHT31;56575;48.942;8.404;2023-05-17T00:21:50;10.06;70.02
69387;SHT31;56575;48.942;8.404;2023-05-17T00:24:16;10.03;70.16
69387;SHT31;56575;48.942;8.404;2023-05-17T00:26:41;10.02;70.48
69387;SHT31;56575;48.942;8.404;2023-05-17T00:29:06;9.95;70.40
69387;SHT31;56575;48.942;8.404;2023-05-17T00:31:32;9.92;70.88
69387;SHT31;56575;48.942;8.404;2023-05-17T00:33:57;9.85;71.06
69387;SHT31;56575;48.942;8.404;2023-05-17T00:36:22;9.85;70.91
69387;SHT31;56575;48.942;8.404;2023-05-17T00:38:48;9.82;71.09
69387;SHT31;56575;48.942;8.404;2023-05-17T00:41:13;9.82;71.19
69387;SHT31;56575;48.942;8.404;2023-05-17T00:43:39;9.81;70.89
69387;SHT31;56575;48.942;8.404;2023-05-17T00:46:04;9.79;71.22
69387;SHT31;56575;48.942;8.404;2023-05-17T00:48:30;9.81;71.80
69387;SHT31;56575;48.942;8.404;2023-05-17T00:50:55;9.74;71.66
69387;SHT31;56575;48.942;8.404;2023-05-17T00:53:22;9.72;71.95
69387;SHT31;56575;48.942;8.404;2023-05-17T00:55:48;9.71;72.43
69387;SHT31;56575;48.942;8.404;2023-05-17T00:58:14;9.62;72.17
69387;SHT31;56575;48.942;8.404;2023-05-17T01:00:39;9.63;72.86
69387;SHT31;56575;48.942;8.404;2023-05-17T01:03:05;9.58;72.75
69387;SHT31;56575;48.942;8.404;2023-05-17T01:05:31;9.48;73.02
69387;SHT31;56575;48.942;8.404;2023-05-17T01:07:57;9.41;73.32
69387;SHT31;56575;48.942;8.404;2023-05-17T01:10:30;9.35;73.18
69387;SHT31;56575;48.942;8.404;2023-05-17T01:15:29;9.20;73.52
69387;SHT31;56575;48.942;8.404;2023-05-17T01:18:16;9.13;73.73
69387;SHT31;56575;48.942;8.404;2023-05-17T01:20:45;9.06;74.40
69387;SHT31;56575;48.942;8.404;2023-05-17T01:23:34;8.96;74.68
69387;SHT31;56575;48.942;8.404;2023-05-17T01:26:15;8.92;75.27
69387;SHT31;56575;48.942;8.404;2023-05-17T01:28:43;8.89;74.70
69387;SHT31;56575;48.942;8.404;2023-05-17T01:31:10;8.82;74.97
69387;SHT31;56575;48.942;8.404;2023-05-17T01:33:36;8.78;75.02
69387;SHT31;56575;48.942;8.404;2023-05-17T01:36:02;8.73;75.40
69387;SHT31;56575;48.942;8.404;2023-05-17T01:38:27;8.68;75.65
69387;SHT31;56575;48.942;8.404;2023-05-17T01:41:10;8.69;75.59
69387;SHT31;56575;48.942;8.404;2023-05-17T01:43:50;8.73;75.86
69387;SHT31;56575;48.942;8.404;2023-05-17T01:47:03;8.75;75.13
69387;SHT31;56575;48.942;8.404;2023-05-17T01:49:25;8.82;74.56
69387;SHT31;56575;48.942;8.404;2023-05-17T01:57:26;9.00;74.74
69387;SHT31;56575;48.942;8.404;2023-05-17T01:59:54;9.03;74.54
69387;SHT31;56575;48.942;8.404;2023-05-17T02:02:19;8.99;74.41
69387;SHT31;56575;48.942;8.404;2023-05-17T02:04:46;8.92;74.38
69387;SHT31;56575;48.942;8.404;2023-05-17T02:07:12;8.79;74.81
69387;SHT31;56575;48.942;8.404;2023-05-17T02:09:37;8.66;75.10
69387;SHT31;56575;48.942;8.404;2023-05-17T02:12:03;8.62;75.70
69387;SHT31;56575;48.942;8.404;2023-05-17T02:14:29;8.59;76.14
69387;SHT31;56575;48.942;8.404;2023-05-17T02:16:54;8.54;76.07
69387;SHT31;56575;48.942;8.404;2023-05-17T02:19:19;8.45;75.98
69387;SHT31;56575;48.942;8.404;2023-05-17T02:21:45;8.48;76.10
69387;SHT31;56575;48.942;8.404;2023-05-17T02:24:10;8.47;76.20
69387;SHT31;56575;48.942;8.404;2023-05-17T02:26:36;8.38;76.15
69387;SHT31;56575;48.942;8.404;2023-05-17T02:29:01;8.38;76.33
69387;SHT31;56575;48.942;8.404;2023-05-17T02:31:27;8.36;76.44
69387;SHT31;56575;48.942;8.404;2023-05-17T02:33:53;8.29;76.45
69387;SHT31;56575;48.942;8.404;2023-05-17T02:36:18;8.27;76.74
69387;SHT31;56575;48.942;8.404;2023-05-17T02:38:43;8.27;76.96
69387;SHT31;56575;48.942;8.404;2023-05-17T02:41:09;8.26;77.14
69387;SHT31;56575;48.942;8.404;2023-05-17T02:43:34;8.26;77.26
69387;SHT31;56575;48.942;8.404;2023-05-17T02:46:00;8.27;77.08
69387;SHT31;56575;48.942;8.404;2023-05-17T02:48:25;8.26;77.14
69387;SHT31;56575;48.942;8.404;2023-05-17T02:50:51;8.24;77.17
69387;SHT31;56575;48.942;8.404;2023-05-17T02:53:16;8.26;77.40
69387;SHT31;56575;48.942;8.404;2023-05-17T02:55:42;8.24;77.17
69387;SHT31;56575;48.942;8.404;2023-05-17T02:58:07;8.27;77.09
69387;SHT31;56575;48.942;8.404;2023-05-17T03:00:32;8.24;77.14
69387;SHT31;56575;48.942;8.404;2023-05-17T03:02:58;8.24;78.10
69387;SHT31;56575;48.942;8.404;2023-05-17T03:05:23;8.21;77.33
69387;SHT31;56575;48.942;8.404;2023-05-17T03:07:48;8.19;77.47
69387;SHT31;56575;48.942;8.404;2023-05-17T03:10:14;8.19;77.49
69387;SHT31;56575;48.942;8.404;2023-05-17T03:12:40;8.21;77.62
69387;SHT31;56575;48.942;8.404;2023-05-17T03:15:05;8.21;77.74
69387;SHT31;56575;48.942;8.404;2023-05-17T03:17:31;8.17;77.25
69387;SHT31;56575;48.942;8.404;2023-05-17T03:19:56;8.17;77.33
69387;SHT31;56575;48.942;8.404;2023-05-17T03:22:22;8.14;77.28
69387;SHT31;56575;48.942;8.404;2023-05-17T03:24:47;8.09;77.30
69387;SHT31;56575;48.942;8.404;2023-05-17T03:27:12;8.04;77.65
69387;SHT31;56575;48.942;8.404;2023-05-17T03:29:38;8.02;77.65
69387;SHT31;56575;48.942;8.404;2023-05-17T03:32:03;8.02;78.02
69387;SHT31;56575;48.942;8.404;2023-05-17T03:34:29;8.06;78.06
69387;SHT31;56575;48.942;8.404;2023-05-17T03:36:54;8.06;77.83
69387;SHT31;56575;48.942;8.404;2023-05-17T03:39:20;8.07;77.94
69387;SHT31;56575;48.942;8.404;2023-05-17T03:41:45;8.07;77.60
69387;SHT31;56575;48.942;8.404;2023-05-17T03:44:10;8.00;77.80
69387;SHT31;56575;48.942;8.404;2023-05-17T03:46:36;8.00;77.88
69387;SHT31;56575;48.942;8.404;2023-05-17T03:49:01;8.02;78.04
69387;SHT31;56575;48.942;8.404;2023-05-17T03:51:27;8.04;78.05
69387;SHT31;56575;48.942;8.404;2023-05-17T03:53:59;8.03;77.89
69387;SHT31;56575;48.942;8.404;2023-05-17T03:56:25;8.00;77.98
69387;SHT31;56575;48.942;8.404;2023-05-17T03:58:50;8.00;77.81
69387;SHT31;56575;48.942;8.404;2023-05-17T04:01:15;7.99;77.73
69387;SHT31;56575;48.942;8.404;2023-05-17T04:03:41;7.99;78.08
69387;SHT31;56575;48.942;8.404;2023-05-17T04:06:07;8.02;78.28
69387;SHT31;56575;48.942;8.404;2023-05-17T04:08:33;8.13;77.96
69387;SHT31;56575;48.942;8.404;2023-05-17T04:10:59;8.09;77.93
69387;SHT31;56575;48.942;8.404;2023-05-17T04:13:34;8.12;77.91
69387;SHT31;56575;48.942;8.404;2023-05-17T04:16:00;8.21;77.79
69387;SHT31;56575;48.942;8.404;2023-05-17T04:18:25;8.23;77.55
69387;SHT31;56575;48.942;8.404;2023-05-17T04:20:51;8.21;77.65
69387;SHT31;56575;48.942;8.404;2023-05-17T04:23:16;8.20;77.52
69387;SHT31;56575;48.942;8.404;2023-05-17T04:25:42;8.20;77.74
69387;SHT31;56575;48.942;8.404;2023-05-17T04:28:08;8.21;77.76
69387;SHT31;56575;48.942;8.404;2023-05-17T04:30:33;8.24;77.72
69387;SHT31;56575;48.942;8.404;2023-05-17T04:32:58;8.26;77.69
69387;SHT31;56575;48.942;8.404;2023-05-17T04:35:25;8.27;77.49
69387;SHT31;56575;48.942;8.404;2023-05-17T04:37:50;8.36;77.56
69387;SHT31;56575;48.942;8.404;2023-05-17T04:40:17;8.40;77.38
69387;SHT31;56575;48.942;8.404;2023-05-17T04:42:42;8.45;77.78
69387;SHT31;56575;48.942;8.404;2023-05-17T04:45:08;8.48;77.42
69387;SHT31;56575;48.942;8.404;2023-05-17T04:47:33;8.45;77.69
69387;SHT31;56575;48.942;8.404;2023-05-17T04:49:58;8.47;77.30
69387;SHT31;56575;48.942;8.404;2023-05-17T04:52:24;8.44;77.36
69387;SHT31;56575;48.942;8.404;2023-05-17T04:54:50;8.49;77.28
69387;SHT31;56575;48.942;8.404;2023-05-17T04:57:16;8.51;76.97
69387;SHT31;56575;48.942;8.404;2023-05-17T04:59:41;8.51;77.14
69387;SHT31;56575;48.942;8.404;2023-05-17T05:02:06;8.52;77.13
69387;SHT31;56575;48.942;8.404;2023-05-17T05:04:32;8.52;77.29
69387;SHT31;56575;48.942;8.404;2023-05-17T05:06:57;8.55;77.15
69387;SHT31;56575;48.942;8.404;2023-05-17T05:09:23;8.54;77.34
69387;SHT31;56575;48.942;8.404;2023-05-17T05:11:48;8.57;77.25
69387;SHT31;56575;48.942;8.404;2023-05-17T05:14:13;8.61;77.26
69387;SHT31;56575;48.942;8.404;2023-05-17T05:16:39;8.62;77.25
69387;SHT31;56575;48.942;8.404;2023-05-17T05:19:04;8.69;77.23
69387;SHT31;56575;48.942;8.404;2023-05-17T05:21:30;8.79;76.94
69387;SHT31;56575;48.942;8.404;2023-05-17T05:23:56;8.82;76.54
69387;SHT31;56575;48.942;8.404;2023-05-17T05:26:21;8.90;76.65
69387;SHT31;56575;48.942;8.404;2023-05-17T05:28:46;8.95;76.52
69387;SHT31;56575;48.942;8.404;2023-05-17T05:31:12;9.06;76.62
69387;SHT31;56575;48.942;8.404;2023-05-17T05:33:37;9.12;76.69
69387;SHT31;56575;48.942;8.404;2023-05-17T05:36:03;9.24;77.02
69387;SHT31;56575;48.942;8.404;2023-05-17T05:38:28;9.38;76.98
69387;SHT31;56575;48.942;8.404;2023-05-17T05:40:53;9.48;76.30
69387;SHT31;56575;48.942;8.404;2023-05-17T05:43:19;9.59;76.29
69387;SHT31;56575;48.942;8.404;2023-05-17T05:45:44;9.71;76.05
69387;SHT31;56575;48.942;8.404;2023-05-17T05:48:12;9.82;75.53
69387;SHT31;56575;48.942;8.404;2023-05-17T05:50:38;9.92;74.52
69387;SHT31;56575;48.942;8.404;2023-05-17T05:53:03;10.00;74.90
69387;SHT31;56575;48.942;8.404;2023-05-17T05:55:28;10.06;75.01
69387;SHT31;56575;48.942;8.404;2023-05-17T05:57:54;10.18;74.19
69387;SHT31;56575;48.942;8.404;2023-05-17T06:00:19;10.33;73.75
69387;SHT31;56575;48.942;8.404;2023-05-17T06:02:45;10.42;73.20
69387;SHT31;56575;48.942;8.404;2023-05-17T06:05:11;10.52;72.90
69387;SHT31;56575;48.942;8.404;2023-05-17T06:07:36;10.65;72.26
69387;SHT31;56575;48.942;8.404;2023-05-17T06:10:01;10.71;72.00
69387;SHT31;56575;48.942;8.404;2023-05-17T06:12:27;10.78;71.80
69387;SHT31;56575;48.942;8.404;2023-05-17T06:14:52;10.89;71.48
69387;SHT31;56575;48.942;8.404;2023-05-17T06:17:17;10.97;71.39
69387;SHT31;56575;48.942;8.404;2023-05-17T06:19:43;11.04;70.51
69387;SHT31;56575;48.942;8.404;2023-05-17T06:22:08;11.10;70.11
69387;SHT31;56575;48.942;8.404;2023-05-17T06:24:33;11.20;69.97
69387;SHT31;56575;48.942;8.404;2023-05-17T06:26:59;11.23;70.23
69387;SHT31;56575;48.942;8.404;2023-05-17T06:29:24;11.26;70.42
69387;SHT31;56575;48.942;8.404;2023-05-17T06:31:49;11.30;70.26
69387;SHT31;56575;48.942;8.404;2023-05-17T06:34:15;11.28;70.23
69387;SHT31;56575;48.942;8.404;2023-05-17T06:36:40;11.26;70.03
69387;SHT31;56575;48.942;8.404;2023-05-17T06:39:05;11.17;69.94
69387;SHT31;56575;48.942;8.404;2023-05-17T06:41:31;11.13;69.78
69387;SHT31;56575;48.942;8.404;2023-05-17T06:43:56;11.14;69.97
69387;SHT31;56575;48.942;8.404;2023-05-17T06:46:22;11.16;70.09
69387;SHT31;56575;48.942;8.404;2023-05-17T06:48:47;11.17;69.35
69387;SHT31;56575;48.942;8.404;2023-05-17T06:51:12;11.21;70.29
69387;SHT31;56575;48.942;8.404;2023-05-17T06:53:38;11.21;69.75
69387;SHT31;56575;48.942;8.404;2023-05-17T06:56:03;11.23;69.60
69387;SHT31;56575;48.942;8.404;2023-05-17T06:58:29;11.23;70.21
69387;SHT31;56575;48.942;8.404;2023-05-17T07:00:55;11.26;69.39
69387;SHT31;56575;48.942;8.404;2023-05-17T07:03:21;11.30;68.95
69387;SHT31;56575;48.942;8.404;2023-05-17T07:05:46;11.38;69.27
69387;SHT31;56575;48.942;8.404;2023-05-17T07:08:12;11.38;68.37
69387;SHT31;56575;48.942;8.404;2023-05-17T07:10:39;11.41;68.23
69387;SHT31;56575;48.942;8.404;2023-05-17T07:13:04;11.48;68.32
69387;SHT31;56575;48.942;8.404;2023-05-17T07:15:30;11.48;67.66
69387;SHT31;56575;48.942;8.404;2023-05-17T07:17:55;11.45;67.85
69387;SHT31;56575;48.942;8.404;2023-05-17T07:20:20;11.41;67.74
69387;SHT31;56575;48.942;8.404;2023-05-17T07:22:46;11.41;67.54
69387;SHT31;56575;48.942;8.404;2023-05-17T07:25:12;11.41;67.53
69387;SHT31;56575;48.942;8.404;2023-05-17T07:27:39;11.35;67.39
69387;SHT31;56575;48.942;8.404;2023-05-17T07:30:05;11.35;67.61
69387;SHT31;56575;48.942;8.404;2023-05-17T07:32:31;11.38;67.89
69387;SHT31;56575;48.942;8.404;2023-05-17T07:34:57;11.42;68.01
69387;SHT31;56575;48.942;8.404;2023-05-17T07:37:22;11.48;67.00
69387;SHT31;56575;48.942;8.404;2023-05-17T07:39:47;11.57;67.10
69387;SHT31;56575;48.942;8.404;2023-05-17T07:42:13;11.68;67.07
69387;SHT31;56575;48.942;8.404;2023-05-17T07:44:38;11.76;67.56
69387;SHT31;56575;48.942;8.404;2023-05-17T07:47:04;11.86;66.91
69387;SHT31;56575;48.942;8.404;2023-05-17T07:49:29;11.87;66.47
69387;SHT31;56575;48.942;8.404;2023-05-17T07:51:57;12.03;65.92
69387;SHT31;56575;48.942;8.404;2023-05-17T07:54:24;12.10;65.85
69387;SHT31;56575;48.942;8.404;2023-05-17T07:56:53;12.24;65.92
69387;SHT31;56575;48.942;8.404;2023-05-17T07:59:22;12.37;65.14
69387;SHT31;56575;48.942;8.404;2023-05-17T08:01:48;12.52;64.88
69387;SHT31;56575;48.942;8.404;2023-05-17T08:04:13;12.68;63.98
69387;SHT31;56575;48.942;8.404;2023-05-17T08:06:40;12.78;62.62
69387;SHT31;56575;48.942;8.404;2023-05-17T08:09:06;12.85;62.76
69387;SHT31;56575;48.942;8.404;2023-05-17T08:11:32;12.89;62.51
69387;SHT31;56575;48.942;8.404;2023-05-17T08:13:59;12.86;61.64
69387;SHT31;56575;48.942;8.404;2023-05-17T08:16:24;13.06;61.41
69387;SHT31;56575;48.942;8.404;2023-05-17T08:18:50;13.17;60.92
69387;SHT31;56575;48.942;8.404;2023-05-17T08:21:16;13.33;61.66
69387;SHT31;56575;48.942;8.404;2023-05-17T08:23:41;13.37;60.85
69387;SHT31;56575;48.942;8.404;2023-05-17T08:26:06;13.38;60.32
69387;SHT31;56575;48.942;8.404;2023-05-17T08:28:32;13.41;61.34
69387;SHT31;56575;48.942;8.404;2023-05-17T08:30:57;13.36;60.60
69387;SHT31;56575;48.942;8.404;2023-05-17T08:33:23;13.50;59.87
69387;SHT31;56575;48.942;8.404;2023-05-17T08:35:51;13.71;59.51
69387;SHT31;56575;48.942;8.404;2023-05-17T08:38:17;14.01;59.12
69387;SHT31;56575;48.942;8.404;2023-05-17T08:40:43;14.21;58.99
69387;SHT31;56575;48.942;8.404;2023-05-17T08:43:10;14.51;57.95
69387;SHT31;56575;48.942;8.404;2023-05-17T08:45:37;14.71;56.94
69387;SHT31;56575;48.942;8.404;2023-05-17T08:48:04;14.74;55.80
69387;SHT31;56575;48.942;8.404;2023-05-17T08:50:31;14.74;56.35
69387;SHT31;56575;48.942;8.404;2023-05-17T08:52:58;14.89;55.85
69387;SHT31;56575;48.942;8.404;2023-05-17T08:55:25;15.33;55.06
69387;SHT31;56575;48.942;8.404;2023-05-17T08:57:52;15.65;53.15
69387;SHT31;56575;48.942;8.404;2023-05-17T09:00:20;15.65;52.80
69387;SHT31;56575;48.942;8.404;2023-05-17T09:02:46;15.64;52.78
69387;SHT31;56575;48.942;8.404;2023-05-17T09:05:12;15.20;53.30
69387;SHT31;56575;48.942;8.404;2023-05-17T09:07:37;15.10;54.52
69387;SHT31;56575;48.942;8.404;2023-05-17T09:10:03;14.93;54.91
69387;SHT31;56575;48.942;8.404;2023-05-17T09:12:33;14.72;54.43
69387;SHT31;56575;48.942;8.404;2023-05-17T09:15:17;14.52;55.21
69387;SHT31;56575;48.942;8.404;2023-05-17T09:17:50;14.47;54.66
69387;SHT31;56575;48.942;8.404;2023-05-17T09:20:24;14.47;54.31
69387;SHT31;56575;48.942;8.404;2023-05-17T09:22:50;14.44;54.67
69387;SHT31;56575;48.942;8.404;2023-05-17T09:25:22;14.45;55.22
69387;SHT31;56575;48.942;8.404;2023-05-17T09:27:51;14.42;55.27
69387;SHT31;56575;48.942;8.404;2023-05-17T09:30:16;14.40;55.59
69387;SHT31;56575;48.942;8.404;2023-05-17T09:32:43;14.42;55.66
69387;SHT31;56575;48.942;8.404;2023-05-17T09:35:10;14.57;55.24
69387;SHT31;56575;48.942;8.404;2023-05-17T09:37:38;14.65;55.30
69387;SHT31;56575;48.942;8.404;2023-05-17T09:40:07;14.68;55.28
69387;SHT31;56575;48.942;8.404;2023-05-17T09:42:33;14.72;56.09
69387;SHT31;56575;48.942;8.404;2023-05-17T09:45:01;14.61;55.07
69387;SHT31;56575;48.942;8.404;2023-05-17T09:47:29;14.71;54.94
69387;SHT31;56575;48.942;8.404;2023-05-17T09:49:55;14.65;55.83
69387;SHT31;56575;48.942;8.404;2023-05-17T09:52:22;14.63;55.82
69387;SHT31;56575;48.942;8.404;2023-05-17T09:54:55;14.54;56.38
69387;SHT31;56575;48.942;8.404;2023-05-17T09:57:22;14.52;55.96
69387;SHT31;56575;48.942;8.404;2023-05-17T09:59:49;14.52;55.64
69387;SHT31;56575;48.942;8.404;2023-05-17T10:02:25;14.52;54.87
69387;SHT31;56575;48.942;8.404;2023-05-17T10:04:51;14.67;55.59
69387;SHT31;56575;48.942;8.404;2023-05-17T10:07:18;14.88;55.69
69387;SHT31;56575;48.942;8.404;2023-05-17T10:09:47;15.06;53.35
69387;SHT31;56575;48.942;8.404;2023-05-17T10:12:20;15.29;56.58
69387;SHT31;56575;48.942;8.404;2023-05-17T10:14:46;15.43;56.98
69387;SHT31;56575;48.942;8.404;2023-05-17T10:17:12;15.41;53.30
69387;SHT31;56575;48.942;8.404;2023-05-17T10:19:38;15.46;53.22
69387;SHT31;56575;48.942;8.404;2023-05-17T10:22:05;15.51;52.85
69387;SHT31;56575;48.942;8.404;2023-05-17T10:24:31;15.58;52.83
69387;SHT31;56575;48.942;8.404;2023-05-17T10:26:57;15.67;52.51
69387;SHT31;56575;48.942;8.404;2023-05-17T10:29:23;15.58;52.40
69387;SHT31;56575;48.942;8.404;2023-05-17T10:31:49;15.34;53.54
69387;SHT31;56575;48.942;8.404;2023-05-17T10:34:18;15.24;53.55
69387;SHT31;56575;48.942;8.404;2023-05-17T10:36:44;15.04;55.17
69387;SHT31;56575;48.942;8.404;2023-05-17T10:39:11;14.98;54.82
69387;SHT31;56575;48.942;8.404;2023-05-17T10:41:40;14.96;54.28
69387;SHT31;56575;48.942;8.404;2023-05-17T10:44:08;14.95;54.97
69387;SHT31;56575;48.942;8.404;2023-05-17T10:46:36;14.78;54.49
69387;SHT31;56575;48.942;8.404;2023-05-17T10:49:02;14.81;54.44
69387;SHT31;56575;48.942;8.404;2023-05-17T10:51:32;14.85;54.34
69387;SHT31;56575;48.942;8.404;2023-05-17T10:54:33;14.99;54.23
69387;SHT31;56575;48.942;8.404;2023-05-17T10:57:03;15.18;55.39
69387;SHT31;56575;48.942;8.404;2023-05-17T10:59:29;15.20;54.25
69387;SHT31;56575;48.942;8.404;2023-05-17T11:02:07;15.27;53.22
69387;SHT31;56575;48.942;8.404;2023-05-17T11:04:42;15.37;52.54
69387;SHT31;56575;48.942;8.404;2023-05-17T11:09:44;15.72;53.55
69387;SHT31;56575;48.942;8.404;2023-05-17T11:12:12;15.71;52.96
69387;SHT31;56575;48.942;8.404;2023-05-17T11:17:20;15.61;53.08
69387;SHT31;56575;48.942;8.404;2023-05-17T11:20:08;15.61;52.99
69387;SHT31;56575;48.942;8.404;2023-05-17T11:22:39;15.61;52.69
69387;SHT31;56575;48.942;8.404;2023-05-17T11:25:09;15.67;52.49
69387;SHT31;56575;48.942;8.404;2023-05-17T11:27:37;15.69;52.42
69387;SHT31;56575;48.942;8.404;2023-05-17T11:30:08;15.54;52.94
69387;SHT31;56575;48.942;8.404;2023-05-17T11:32:34;15.43;52.00
69387;SHT31;56575;48.942;8.404;2023-05-17T11:35:00;15.29;53.27
69387;SHT31;56575;48.942;8.404;2023-05-17T11:37:26;15.27;53.78
69387;SHT31;56575;48.942;8.404;2023-05-17T11:40:06;15.23;53.10
69387;SHT31;56575;48.942;8.404;2023-05-17T11:42:35;15.22;53.14
69387;SHT31;56575;48.942;8.404;2023-05-17T11:45:02;15.26;53.43
69387;SHT31;56575;48.942;8.404;2023-05-17T11:47:28;15.31;53.04
69387;SHT31;56575;48.942;8.404;2023-05-17T11:49:54;15.48;52.68
69387;SHT31;56575;48.942;8.404;2023-05-17T11:52:20;15.44;52.35
69387;SHT31;56575;48.942;8.404;2023-05-17T11:54:47;15.54;51.05
69387;SHT31;56575;48.942;8.404;2023-05-17T11:57:13;15.53;50.90
69387;SHT31;56575;48.942;8.404;2023-05-17T11:59:41;15.59;51.25
69387;SHT31;56575;48.942;8.404;2023-05-17T12:02:10;15.64;50.52
69387;SHT31;56575;48.942;8.404;2023-05-17T12:04:49;15.74;50.02
69387;SHT31;56575;48.942;8.404;2023-05-17T12:07:15;15.75;50.29
69387;SHT31;56575;48.942;8.404;2023-05-17T12:09:43;15.85;50.31
69387;SHT31;56575;48.942;8.404;2023-05-17T12:12:08;15.99;50.35
69387;SHT31;56575;48.942;8.404;2023-05-17T12:14:34;16.12;50.21
69387;SHT31;56575;48.942;8.404;2023-05-17T12:17:02;16.14;49.68
69387;SHT31;56575;48.942;8.404;2023-05-17T12:19:29;16.19;49.22
69387;SHT31;56575;48.942;8.404;2023-05-17T12:22:09;16.21;48.66
69387;SHT31;56575;48.942;8.404;2023-05-17T12:24:41;16.33;49.33
69387;SHT31;56575;48.942;8.404;2023-05-17T12:27:08;16.40;48.59
69387;SHT31;56575;48.942;8.404;2023-05-17T12:29:33;16.51;49.75
69387;SHT31;56575;48.942;8.404;2023-05-17T12:32:00;16.43;49.44
69387;SHT31;56575;48.942;8.404;2023-05-17T12:34:27;16.41;47.69
69387;SHT31;56575;48.942;8.404;2023-05-17T12:36:53;16.56;50.44
69387;SHT31;56575;48.942;8.404;2023-05-17T12:39:19;16.74;49.13
69387;SHT31;56575;48.942;8.404;2023-05-17T12:41:48;16.69;46.89
69387;SHT31;56575;48.942;8.404;2023-05-17T12:44:14;16.88;45.80
69387;SHT31;56575;48.942;8.404;2023-05-17T12:46:40;17.13;45.88
69387;SHT31;56575;48.942;8.404;2023-05-17T12:49:09;17.27;46.43
69387;SHT31;56575;48.942;8.404;2023-05-17T12:51:45;17.43;46.53
69387;SHT31;56575;48.942;8.404;2023-05-17T12:54:13;17.31;47.01
69387;SHT31;56575;48.942;8.404;2023-05-17T12:56:41;17.15;45.62
69387;SHT31;56575;48.942;8.404;2023-05-17T12:59:12;17.03;45.81
69387;SHT31;56575;48.942;8.404;2023-05-17T13:01:44;16.91;46.35
69387;SHT31;56575;48.942;8.404;2023-05-17T13:04:11;16.91;45.64
69387;SHT31;56575;48.942;8.404;2023-05-17T13:06:53;16.95;46.30
69387;SHT31;56575;48.942;8.404;2023-05-17T13:09:20;17.15;46.86
69387;SHT31;56575;48.942;8.404;2023-05-17T13:11:55;17.24;45.50
69387;SHT31;56575;48.942;8.404;2023-05-17T13:14:39;17.37;44.80
69387;SHT31;56575;48.942;8.404;2023-05-17T13:17:26;17.70;45.56
69387;SHT31;56575;48.942;8.404;2023-05-17T13:19:59;17.64;43.37
69387;SHT31;56575;48.942;8.404;2023-05-17T13:22:25;17.67;44.74
69387;SHT31;56575;48.942;8.404;2023-05-17T13:24:50;17.64;44.69
69387;SHT31;56575;48.942;8.404;2023-05-17T13:27:15;17.40;44.77
69387;SHT31;56575;48.942;8.404;2023-05-17T13:29:42;17.48;43.60
69387;SHT31;56575;48.942;8.404;2023-05-17T13:32:09;17.77;43.80
69387;SHT31;56575;48.942;8.404;2023-05-17T13:34:36;17.86;44.12
69387;SHT31;56575;48.942;8.404;2023-05-17T13:37:01;17.91;44.14
69387;SHT31;56575;48.942;8.404;2023-05-17T13:39:26;17.74;43.82
69387;SHT31;56575;48.942;8.404;2023-05-17T13:41:52;17.60;44.63
69387;SHT31;56575;48.942;8.404;2023-05-17T13:44:17;17.67;44.15
69387;SHT31;56575;48.942;8.404;2023-05-17T13:46:42;17.71;44.76
69387;SHT31;56575;48.942;8.404;2023-05-17T13:49:08;17.60;44.15
69387;SHT31;56575;48.942;8.404;2023-05-17T13:51:33;17.64;43.99
69387;SHT31;56575;48.942;8.404;2023-05-17T13:53:59;17.68;44.92
69387;SHT31;56575;48.942;8.404;2023-05-17T13:56:25;17.67;43.08
69387;SHT31;56575;48.942;8.404;2023-05-17T13:58:50;17.61;43.88
69387;SHT31;56575;48.942;8.404;2023-05-17T14:01:16;18.12;44.97
69387;SHT31;56575;48.942;8.404;2023-05-17T14:03:43;18.57;42.77
69387;SHT31;56575;48.942;8.404;2023-05-17T14:06:08;18.76;42.48
69387;SHT31;56575;48.942;8.404;2023-05-17T14:08:34;19.43;42.83
69387;SHT31;56575;48.942;8.404;2023-05-17T14:10:59;19.64;39.53
69387;SHT31;56575;48.942;8.404;2023-05-17T14:13:25;19.22;38.61
69387;SHT31;56575;48.942;8.404;2023-05-17T14:15:51;19.23;38.77
69387;SHT31;56575;48.942;8.404;2023-05-17T14:18:16;18.98;39.46
69387;SHT31;56575;48.942;8.404;2023-05-17T14:20:42;18.99;39.41
69387;SHT31;56575;48.942;8.404;2023-05-17T14:23:07;18.95;39.68
69387;SHT31;56575;48.942;8.404;2023-05-17T14:25:32;19.23;39.41
69387;SHT31;56575;48.942;8.404;2023-05-17T14:27:58;19.58;39.96
69387;SHT31;56575;48.942;8.404;2023-05-17T14:30:23;19.58;38.07
69387;SHT31;56575;48.942;8.404;2023-05-17T14:32:49;19.18;36.91
69387;SHT31;56575;48.942;8.404;2023-05-17T14:35:15;19.01;39.89
69387;SHT31;56575;48.942;8.404;2023-05-17T14:37:43;18.64;40.16
69387;SHT31;56575;48.942;8.404;2023-05-17T14:40:09;18.57;40.24
69387;SHT31;56575;48.942;8.404;2023-05-17T14:42:34;18.81;37.51
69387;SHT31;56575;48.942;8.404;2023-05-17T14:45:00;19.09;38.99
69387;SHT31;56575;48.942;8.404;2023-05-17T14:47:25;19.08;39.80
69387;SHT31;56575;48.942;8.404;2023-05-17T14:49:51;18.84;39.22
69387;SHT31;56575;48.942;8.404;2023-05-17T14:52:16;19.11;40.57
69387;SHT31;56575;48.942;8.404;2023-05-17T14:54:42;19.43;38.02
69387;SHT31;56575;48.942;8.404;2023-05-17T14:57:08;19.96;38.34
69387;SHT31;56575;48.942;8.404;2023-05-17T14:59:34;20.43;39.01
69387;SHT31;56575;48.942;8.404;2023-05-17T15:02:00;20.57;37.02
69387;SHT31;56575;48.942;8.404;2023-05-17T15:04:25;20.70;37.17
69387;SHT31;56575;48.942;8.404;2023-05-17T15:06:51;20.13;36.92
69387;SHT31;56575;48.942;8.404;2023-05-17T15:09:17;19.77;38.57
69387;SHT31;56575;48.942;8.404;2023-05-17T15:11:43;19.26;38.94
69387;SHT31;56575;48.942;8.404;2023-05-17T15:14:10;19.02;39.88
69387;SHT31;56575;48.942;8.404;2023-05-17T15:16:35;19.27;39.66
69387;SHT31;56575;48.942;8.404;2023-05-17T15:19:01;19.54;38.97
69387;SHT31;56575;48.942;8.404;2023-05-17T15:21:27;19.60;37.14
69387;SHT31;56575;48.942;8.404;2023-05-17T15:23:52;20.11;38.19
69387;SHT31;56575;48.942;8.404;2023-05-17T15:26:18;20.26;35.11
69387;SHT31;56575;48.942;8.404;2023-05-17T15:28:43;20.47;36.14
69387;SHT31;56575;48.942;8.404;2023-05-17T15:31:08;20.78;36.92
69387;SHT31;56575;48.942;8.404;2023-05-17T15:33:38;20.94;35.21
69387;SHT31;56575;48.942;8.404;2023-05-17T15:36:05;21.16;36.24
69387;SHT31;56575;48.942;8.404;2023-05-17T15:38:31;21.08;36.83
69387;SHT31;56575;48.942;8.404;2023-05-17T15:41:01;21.02;38.25
69387;SHT31;56575;48.942;8.404;2023-05-17T15:43:28;21.09;36.50
69387;SHT31;56575;48.942;8.404;2023-05-17T15:45:53;21.13;36.92